createdAt,value
2022-07-26T00:01:13.993Z,6.15
2022-07-26T00:03:41.256Z,7.80
2022-07-26T00:06:08.554Z,6.80
2022-07-26T00:08:35.760Z,6.63
2022-07-26T00:11:07.342Z,6.07
2022-07-26T00:13:35.241Z,7.35
2022-07-26T00:16:02.651Z,7.15
2022-07-26T00:18:30.027Z,7.15
2022-07-26T00:20:57.353Z,8.02
2022-07-26T00:23:25.036Z,6.72
2022-07-26T00:25:52.311Z,6.55
2022-07-26T00:28:19.545Z,7.13
2022-07-26T00:30:46.896Z,6.70
2022-07-26T00:33:15.174Z,6.85
2022-07-26T00:35:42.404Z,6.85
2022-07-26T00:38:09.678Z,7.25
2022-07-26T00:40:37.028Z,7.07
2022-07-26T00:43:04.255Z,6.63
2022-07-26T00:45:31.496Z,6.65
2022-07-26T00:47:58.677Z,6.75
2022-07-26T00:50:25.929Z,7.05
2022-07-26T00:52:54.261Z,7.22
2022-07-26T00:55:21.929Z,7.65
2022-07-26T00:57:49.558Z,7.13
2022-07-26T01:00:18.859Z,6.80
2022-07-26T01:02:46.398Z,6.97
2022-07-26T01:05:13.679Z,7.00
2022-07-26T01:07:41.018Z,7.13
2022-07-26T01:10:12.285Z,6.72
2022-07-26T01:12:40.439Z,5.93
2022-07-26T01:15:08.099Z,6.35
2022-07-26T01:17:36.331Z,7.05
2022-07-26T01:20:06.412Z,6.88
2022-07-26T01:22:33.591Z,7.05
2022-07-26T01:25:00.829Z,6.93
2022-07-26T01:27:33.543Z,8.65
2022-07-26T01:30:01.332Z,6.88
2022-07-26T01:32:28.589Z,7.00
2022-07-26T01:34:55.913Z,8.00
2022-07-26T01:37:23.159Z,7.05
2022-07-26T01:39:50.392Z,7.00
2022-07-26T01:42:17.668Z,7.15
2022-07-26T01:44:44.963Z,6.97
2022-07-26T01:47:12.244Z,7.40
2022-07-26T01:49:39.552Z,6.53
2022-07-26T01:52:06.886Z,7.00
2022-07-26T01:54:34.126Z,8.13
2022-07-26T01:57:01.397Z,7.50
2022-07-26T01:59:28.672Z,7.40
2022-07-26T02:01:56.022Z,6.47
2022-07-26T02:04:41.883Z,7.00
2022-07-26T02:07:12.826Z,7.20
2022-07-26T02:09:40.615Z,7.75
2022-07-26T02:12:08.150Z,7.35
2022-07-26T02:14:35.398Z,7.75
2022-07-26T02:17:03.018Z,8.30
2022-07-26T02:19:30.934Z,7.07
2022-07-26T02:21:58.262Z,7.38
2022-07-26T02:24:28.642Z,8.30
2022-07-26T02:26:56.399Z,7.97
2022-07-26T02:29:23.775Z,7.80
2022-07-26T02:31:51.221Z,7.45
2022-07-26T02:34:19.012Z,7.85
2022-07-26T02:36:46.640Z,6.93
2022-07-26T02:39:14.241Z,7.97
2022-07-26T02:41:41.674Z,5.97
2022-07-26T02:44:09.499Z,7.80
2022-07-26T02:46:37.770Z,6.63
2022-07-26T02:49:05.550Z,6.57
2022-07-26T02:51:33.027Z,7.03
2022-07-26T02:54:00.326Z,6.15
2022-07-26T02:56:27.617Z,6.00
2022-07-26T02:58:54.870Z,6.35
2022-07-26T03:01:22.873Z,5.65
2022-07-26T03:03:51.018Z,6.70
2022-07-26T03:06:18.858Z,6.82
2022-07-26T03:08:46.172Z,6.88
2022-07-26T03:11:13.505Z,6.63
2022-07-26T03:13:40.841Z,6.55
2022-07-26T03:16:08.897Z,6.60
2022-07-26T03:18:36.269Z,7.07
2022-07-26T03:21:03.632Z,6.45
2022-07-26T03:23:33.530Z,7.53
2022-07-26T03:26:01.764Z,7.43
2022-07-26T03:28:34.994Z,6.88
2022-07-26T03:31:02.777Z,6.28
2022-07-26T03:33:30.523Z,7.40
2022-07-26T03:35:58.110Z,7.72
2022-07-26T03:38:25.461Z,5.95
2022-07-26T03:40:52.859Z,8.02
2022-07-26T03:43:23.248Z,7.65
2022-07-26T03:49:16.902Z,7.10
2022-07-26T03:51:44.947Z,7.82
2022-07-26T03:54:12.550Z,8.18
2022-07-26T03:56:40.622Z,7.90
2022-07-26T03:59:09.156Z,6.80
2022-07-26T04:01:37.236Z,7.47
2022-07-26T04:04:04.899Z,7.65
2022-07-26T04:06:32.272Z,7.30
2022-07-26T04:08:59.573Z,6.93
2022-07-26T04:11:28.700Z,8.00
2022-07-26T04:13:56.370Z,7.15
2022-07-26T04:16:23.791Z,7.38
2022-07-26T04:18:51.311Z,6.97
2022-07-26T04:21:18.573Z,6.95
2022-07-26T04:23:50.841Z,6.82
2022-07-26T04:26:19.026Z,6.15
2022-07-26T04:28:46.329Z,5.82
2022-07-26T04:31:13.686Z,6.38
2022-07-26T04:33:41.023Z,6.30
2022-07-26T04:36:08.367Z,6.13
2022-07-26T04:38:35.681Z,7.13
2022-07-26T04:41:02.974Z,6.43
2022-07-26T04:43:30.359Z,5.88
2022-07-26T04:45:57.776Z,6.57
2022-07-26T04:48:25.906Z,5.95
2022-07-26T04:50:53.816Z,5.32
2022-07-26T04:53:21.079Z,6.90
2022-07-26T04:55:48.459Z,5.45
2022-07-26T04:58:15.814Z,5.50
2022-07-26T05:01:08.941Z,5.00
2022-07-26T05:03:35.008Z,5.60
2022-07-26T05:06:02.425Z,6.00
2022-07-26T05:08:29.700Z,5.20
2022-07-26T05:10:56.926Z,5.68
2022-07-26T05:13:29.540Z,6.28
2022-07-26T05:15:58.292Z,5.43
2022-07-26T05:18:26.586Z,5.47
2022-07-26T05:20:54.034Z,5.28
2022-07-26T05:23:21.419Z,5.25
2022-07-26T05:25:48.667Z,5.90
2022-07-26T05:28:16.153Z,5.60
2022-07-26T05:30:43.455Z,5.10
2022-07-26T05:33:10.775Z,4.70
2022-07-26T05:35:43.664Z,5.32
2022-07-26T05:38:11.022Z,5.30
2022-07-26T05:40:38.291Z,4.88
2022-07-26T05:43:05.605Z,4.70
2022-07-26T05:45:32.953Z,4.18
2022-07-26T05:48:00.208Z,5.45
2022-07-26T05:50:27.564Z,4.95
2022-07-26T05:52:55.096Z,4.93
2022-07-26T05:55:22.467Z,6.65
2022-07-26T05:57:49.995Z,6.15
2022-07-26T06:00:17.554Z,5.07
2022-07-26T06:02:44.974Z,5.20
2022-07-26T06:05:12.368Z,6.43
2022-07-26T06:07:39.799Z,5.30
2022-07-26T06:10:07.225Z,5.82
2022-07-26T06:12:34.556Z,5.45
2022-07-26T06:15:01.799Z,5.22
2022-07-26T06:17:30.364Z,4.50
2022-07-26T06:19:58.425Z,5.65
2022-07-26T06:22:25.721Z,4.65
2022-07-26T06:24:53.042Z,4.28
2022-07-26T06:27:20.306Z,4.53
2022-07-26T06:29:49.124Z,4.88
2022-07-26T06:32:16.413Z,5.55
2022-07-26T06:34:43.718Z,4.72
2022-07-26T06:37:10.968Z,4.72
2022-07-26T06:39:38.241Z,4.47
2022-07-26T06:42:05.489Z,4.25
2022-07-26T06:44:32.678Z,4.50
2022-07-26T06:46:59.956Z,4.78
2022-07-26T06:49:27.226Z,4.03
2022-07-26T06:51:57.604Z,4.05
2022-07-26T06:54:24.904Z,3.80
2022-07-26T06:56:52.201Z,4.75
2022-07-26T06:59:19.374Z,3.90
2022-07-26T07:01:58.150Z,3.67
2022-07-26T07:04:27.779Z,3.63
2022-07-26T07:06:55.208Z,4.35
2022-07-26T07:09:24.650Z,2.95
2022-07-26T07:11:57.434Z,3.03
2022-07-26T07:16:56.065Z,3.00
2022-07-26T07:19:23.689Z,2.78
2022-07-26T07:21:51.242Z,3.17
2022-07-26T07:24:18.972Z,3.20
2022-07-26T07:26:46.447Z,2.95
2022-07-26T07:29:15.292Z,2.47
2022-07-26T07:31:49.082Z,2.58
2022-07-26T07:34:19.566Z,2.57
2022-07-26T07:36:47.321Z,2.40
2022-07-26T07:39:17.462Z,2.10
2022-07-26T07:41:46.139Z,2.38
2022-07-26T07:44:13.749Z,2.20
2022-07-26T07:46:41.230Z,2.10
2022-07-26T07:49:08.985Z,2.47
2022-07-26T07:51:36.670Z,2.28
2022-07-26T07:54:05.824Z,2.00
2022-07-26T07:56:33.513Z,1.75
2022-07-26T07:59:00.951Z,2.30
2022-07-26T08:01:39.586Z,1.42
2022-07-26T08:04:08.497Z,1.70
2022-07-26T08:06:35.994Z,1.85
2022-07-26T08:09:03.840Z,1.75
2022-07-26T08:11:33.841Z,2.10
2022-07-26T08:14:01.634Z,1.88
2022-07-26T08:16:29.083Z,1.77
2022-07-26T08:18:57.848Z,1.88
2022-07-26T08:21:28.223Z,2.00
2022-07-26T08:23:56.480Z,1.30
2022-07-26T08:26:23.771Z,1.30
2022-07-26T08:29:10.254Z,1.60
2022-07-26T08:31:37.739Z,2.05
2022-07-26T08:34:05.136Z,1.90
2022-07-26T08:36:33.222Z,1.27
2022-07-26T08:39:00.948Z,1.70
2022-07-26T08:41:28.538Z,4.95
2022-07-26T08:43:55.760Z,5.05
2022-07-26T08:46:25.939Z,1.75
2022-07-26T08:48:54.931Z,1.45
2022-07-26T08:51:24.050Z,1.83
2022-07-26T08:53:52.756Z,2.22
2022-07-26T08:56:19.984Z,1.48
2022-07-26T08:58:47.270Z,1.67
2022-07-26T09:01:15.078Z,1.38
2022-07-26T09:03:44.361Z,1.08
2022-07-26T09:06:17.671Z,0.55
2022-07-26T09:08:45.682Z,0.68
2022-07-26T09:11:25.082Z,0.60
2022-07-26T09:13:59.881Z,0.60
2022-07-26T09:16:27.329Z,0.50
2022-07-26T09:18:54.680Z,0.90
2022-07-26T09:21:38.909Z,0.80
2022-07-26T09:24:06.454Z,0.90
2022-07-26T09:26:33.916Z,0.98
2022-07-26T09:29:09.168Z,0.90
2022-07-26T09:31:37.572Z,1.00
2022-07-26T09:34:05.962Z,0.85
2022-07-26T09:36:34.007Z,0.90
2022-07-26T09:39:02.644Z,0.93
2022-07-26T09:41:38.709Z,0.88
2022-07-26T09:44:07.381Z,0.63
2022-07-26T09:46:35.869Z,0.60
2022-07-26T09:49:23.483Z,0.70
2022-07-26T09:51:51.691Z,0.80
2022-07-26T09:54:20.912Z,0.90
2022-07-26T09:56:52.058Z,0.70
2022-07-26T09:59:21.673Z,1.02
2022-07-26T10:01:50.152Z,1.23
2022-07-26T10:04:17.994Z,0.80
2022-07-26T10:06:45.398Z,1.17
2022-07-26T10:09:13.685Z,1.08
2022-07-26T10:11:43.997Z,0.75
2022-07-26T10:14:30.773Z,0.75
2022-07-26T10:16:57.941Z,1.35
2022-07-26T10:19:45.541Z,1.25
2022-07-26T10:22:24.572Z,0.88
2022-07-26T10:24:57.566Z,0.70
2022-07-26T10:27:38.304Z,0.75
2022-07-26T10:30:23.831Z,0.60
2022-07-26T10:33:05.414Z,0.80
2022-07-26T10:35:41.639Z,0.68
2022-07-26T10:38:10.213Z,0.50
2022-07-26T10:40:38.523Z,1.67
2022-07-26T10:43:37.811Z,0.52
2022-07-26T10:46:15.138Z,0.57
2022-07-26T10:49:03.973Z,0.50
2022-07-26T10:51:35.530Z,1.10
2022-07-26T10:54:04.167Z,0.30
2022-07-26T10:56:33.621Z,0.75
2022-07-26T10:59:01.502Z,0.38
2022-07-26T11:01:35.690Z,0.50
2022-07-26T11:04:03.278Z,0.50
2022-07-26T11:06:30.633Z,0.40
2022-07-26T11:08:57.950Z,0.47
2022-07-26T11:11:32.479Z,1.05
2022-07-26T11:14:10.198Z,0.57
2022-07-26T11:16:45.666Z,0.57
2022-07-26T11:19:14.666Z,0.68
2022-07-26T11:21:42.135Z,0.55
2022-07-26T11:24:09.877Z,0.65
2022-07-26T11:26:47.026Z,0.73
2022-07-26T11:29:17.375Z,0.50
2022-07-26T11:31:55.694Z,0.40
2022-07-26T11:34:28.303Z,0.50
2022-07-26T11:36:57.147Z,0.50
2022-07-26T11:39:32.024Z,0.40
2022-07-26T11:42:10.082Z,0.70
2022-07-26T11:44:37.964Z,1.05
2022-07-26T11:47:13.364Z,0.60
2022-07-26T11:50:00.817Z,0.63
2022-07-26T11:52:31.989Z,0.98
2022-07-26T11:55:00.045Z,0.70
2022-07-26T11:57:31.659Z,1.02
2022-07-26T11:59:59.978Z,0.57
2022-07-26T12:02:27.370Z,0.70
2022-07-26T12:05:13.509Z,0.70
2022-07-26T12:07:52.889Z,0.82
2022-07-26T12:10:20.242Z,0.80
2022-07-26T12:12:47.595Z,0.60
2022-07-26T12:15:15.712Z,1.50
2022-07-26T12:17:58.858Z,0.63
2022-07-26T12:20:28.106Z,0.80
2022-07-26T12:23:06.063Z,0.80
2022-07-26T12:25:36.135Z,1.30
2022-07-26T12:28:03.438Z,0.90
2022-07-26T12:30:35.979Z,1.98
2022-07-26T12:33:03.334Z,1.10
2022-07-26T12:35:33.581Z,1.00
2022-07-26T12:38:00.961Z,0.75
2022-07-26T12:40:29.526Z,0.77
2022-07-26T12:43:03.151Z,1.02
2022-07-26T12:45:32.137Z,0.90
2022-07-26T12:48:00.546Z,0.50
2022-07-26T12:50:28.716Z,0.77
2022-07-26T12:53:09.038Z,1.00
2022-07-26T12:55:39.959Z,0.70
2022-07-26T12:58:07.272Z,0.70
2022-07-26T13:00:34.675Z,0.52
2022-07-26T13:03:02.202Z,1.08
2022-07-26T13:05:31.336Z,0.60
2022-07-26T13:07:58.661Z,0.60
2022-07-26T13:10:34.984Z,0.85
2022-07-26T13:13:03.627Z,0.60
2022-07-26T13:15:35.025Z,0.88
2022-07-26T13:18:04.092Z,0.60
2022-07-26T13:20:31.407Z,0.60
2022-07-26T13:22:58.676Z,0.68
2022-07-26T13:25:28.963Z,0.55
2022-07-26T13:28:01.273Z,0.60
2022-07-26T13:30:28.548Z,0.70
2022-07-26T13:32:55.823Z,0.50
2022-07-26T13:35:23.133Z,0.80
2022-07-26T13:37:50.372Z,0.77
2022-07-26T13:40:17.678Z,0.50
2022-07-26T13:42:44.968Z,0.70
2022-07-26T13:45:12.319Z,0.65
2022-07-26T13:47:39.656Z,0.70
2022-07-26T13:50:07.895Z,0.60
2022-07-26T13:52:35.237Z,0.88
2022-07-26T13:55:02.641Z,1.02
2022-07-26T13:57:49.085Z,0.60
2022-07-26T14:00:17.256Z,1.10
2022-07-26T14:02:44.679Z,0.63
2022-07-26T14:05:12.105Z,1.13
2022-07-26T14:07:40.541Z,0.80
2022-07-26T14:10:08.115Z,0.88
2022-07-26T14:12:35.414Z,0.80
2022-07-26T14:15:05.469Z,1.30
2022-07-26T14:17:35.166Z,1.23
2022-07-26T14:20:02.975Z,0.90
2022-07-26T14:22:30.624Z,1.25
2022-07-26T14:24:57.895Z,0.95
2022-07-26T14:27:25.194Z,1.60
2022-07-26T14:29:52.548Z,1.23
2022-07-26T14:32:22.064Z,1.27
2022-07-26T14:34:49.589Z,1.10
2022-07-26T14:37:44.402Z,1.50
2022-07-26T14:40:07.172Z,1.02
2022-07-26T14:42:34.699Z,1.38
2022-07-26T14:45:02.013Z,0.93
2022-07-26T14:47:29.338Z,1.05
2022-07-26T14:49:56.702Z,1.63
2022-07-26T14:52:24.045Z,0.95
2022-07-26T14:54:51.375Z,1.58
2022-07-26T14:57:19.777Z,1.23
2022-07-26T14:59:47.041Z,1.15
2022-07-26T15:02:14.370Z,2.00
2022-07-26T15:04:41.708Z,1.23
2022-07-26T15:07:09.109Z,1.10
2022-07-26T15:09:36.425Z,1.30
2022-07-26T15:12:03.706Z,1.20
2022-07-26T15:14:31.000Z,1.10
2022-07-26T15:16:58.378Z,1.27
2022-07-26T15:19:25.997Z,1.20
2022-07-26T15:21:55.097Z,1.77
2022-07-26T15:24:23.345Z,1.45
2022-07-26T15:26:51.797Z,1.30
2022-07-26T15:29:19.095Z,1.52
2022-07-26T15:31:48.006Z,1.10
2022-07-26T15:34:16.003Z,1.42
2022-07-26T15:36:43.459Z,1.13
2022-07-26T15:39:18.592Z,1.20
2022-07-26T15:44:13.404Z,1.55
2022-07-26T15:46:42.352Z,1.48
2022-07-26T15:49:10.802Z,1.00
2022-07-26T15:51:38.081Z,1.00
2022-07-26T15:54:06.695Z,1.00
2022-07-26T15:56:33.948Z,1.02
2022-07-26T15:59:01.236Z,1.20
2022-07-26T16:01:29.010Z,0.85
2022-07-26T16:03:56.392Z,0.93
2022-07-26T16:06:23.645Z,1.33
2022-07-26T16:09:15.095Z,1.23
2022-07-26T16:11:38.293Z,1.20
2022-07-26T16:14:05.666Z,1.20
2022-07-26T16:16:33.018Z,1.15
2022-07-26T16:19:00.417Z,1.17
2022-07-26T16:21:27.679Z,1.10
2022-07-26T16:23:55.024Z,0.90
2022-07-26T16:26:23.513Z,1.67
2022-07-26T16:28:50.768Z,1.40
2022-07-26T16:31:18.045Z,1.27
2022-07-26T16:34:17.826Z,1.00
2022-07-26T16:36:45.343Z,1.13
2022-07-26T16:39:13.666Z,1.27
2022-07-26T16:41:41.403Z,1.58
2022-07-26T16:44:08.708Z,1.05
2022-07-26T16:46:36.055Z,1.38
2022-07-26T16:49:04.691Z,1.02
2022-07-26T16:51:32.376Z,1.10
2022-07-26T16:53:59.605Z,1.27
2022-07-26T16:56:26.905Z,1.50
2022-07-26T16:58:54.170Z,1.73
2022-07-26T17:01:21.551Z,1.65
2022-07-26T17:03:48.940Z,1.25
2022-07-26T17:06:16.261Z,1.38
2022-07-26T17:08:43.708Z,1.10
2022-07-26T17:11:11.058Z,1.50
2022-07-26T17:13:38.311Z,1.20
2022-07-26T17:16:05.837Z,1.40
2022-07-26T17:18:33.301Z,1.10
2022-07-26T17:21:01.499Z,1.20
2022-07-26T17:23:28.776Z,1.60
2022-07-26T17:25:56.108Z,1.25
2022-07-26T17:28:23.309Z,1.33
2022-07-26T17:30:51.299Z,1.20
2022-07-26T17:33:18.696Z,1.33
2022-07-26T17:35:46.014Z,1.40
2022-07-26T17:38:13.258Z,1.15
2022-07-26T17:40:42.197Z,1.85
2022-07-26T17:43:09.397Z,1.25
2022-07-26T17:45:36.679Z,1.20
2022-07-26T17:48:06.366Z,1.40
2022-07-26T17:50:36.924Z,2.03
2022-07-26T17:53:05.352Z,1.25
2022-07-26T17:55:32.630Z,1.50
2022-07-26T17:57:59.939Z,1.30
2022-07-26T18:00:28.603Z,1.40
2022-07-26T18:02:56.818Z,1.55
2022-07-26T18:05:30.163Z,1.63
2022-07-26T18:08:00.862Z,1.55
2022-07-26T18:10:28.389Z,1.65
2022-07-26T18:12:56.003Z,2.15
2022-07-26T18:15:23.248Z,1.30
2022-07-26T18:17:50.624Z,1.55
2022-07-26T18:20:17.871Z,1.23
2022-07-26T18:22:45.730Z,1.77
2022-07-26T18:25:17.369Z,1.02
2022-07-26T18:27:44.702Z,2.42
2022-07-26T18:30:12.051Z,1.65
2022-07-26T18:32:39.291Z,1.17
2022-07-26T18:35:06.821Z,1.83
2022-07-26T18:37:34.178Z,1.73
2022-07-26T18:40:01.906Z,1.30
2022-07-26T18:42:29.128Z,0.90
2022-07-26T18:44:56.570Z,1.58
2022-07-26T18:47:23.762Z,2.38
2022-07-26T18:49:51.476Z,1.63
2022-07-26T18:52:31.657Z,1.40
2022-07-26T18:54:59.704Z,1.05
2022-07-26T18:57:26.950Z,2.15
2022-07-26T18:59:54.276Z,1.13
2022-07-26T19:02:21.461Z,1.80
2022-07-26T19:04:48.817Z,1.67
2022-07-26T19:07:16.100Z,1.33
2022-07-26T19:09:43.423Z,1.30
2022-07-26T19:12:10.848Z,1.48
2022-07-26T19:14:38.240Z,1.40
2022-07-26T19:17:09.791Z,0.93
2022-07-26T19:19:37.622Z,1.17
2022-07-26T19:22:05.205Z,1.77
2022-07-26T19:24:32.559Z,1.30
2022-07-26T19:26:59.830Z,2.08
2022-07-26T19:29:27.109Z,1.30
2022-07-26T19:31:54.378Z,1.48
2022-07-26T19:34:23.658Z,0.88
2022-07-26T19:36:52.779Z,1.55
2022-07-26T19:39:20.419Z,1.50
2022-07-26T19:41:50.657Z,1.02
2022-07-26T19:44:18.134Z,2.65
2022-07-26T19:46:47.917Z,1.20
2022-07-26T19:49:17.013Z,1.13
2022-07-26T19:51:44.897Z,1.38
2022-07-26T19:54:12.293Z,1.13
2022-07-26T19:56:40.069Z,1.10
2022-07-26T19:59:07.638Z,0.82
2022-07-26T20:01:35.095Z,1.13
2022-07-26T20:04:03.004Z,1.08
2022-07-26T20:06:30.279Z,1.10
2022-07-26T20:08:57.613Z,1.08
2022-07-26T20:11:25.170Z,1.20
2022-07-26T20:13:52.516Z,1.33
2022-07-26T20:16:19.932Z,0.73
2022-07-26T20:18:47.251Z,0.90
2022-07-26T20:21:14.675Z,0.80
2022-07-26T20:23:42.068Z,0.60
2022-07-26T20:26:09.318Z,0.73
2022-07-26T20:28:36.619Z,0.70
2022-07-26T20:31:03.942Z,1.00
2022-07-26T20:33:31.181Z,1.02
2022-07-26T20:35:58.408Z,0.82
2022-07-26T20:38:25.787Z,0.75
2022-07-26T20:40:53.214Z,0.68
2022-07-26T20:43:22.416Z,1.25
2022-07-26T20:45:50.290Z,0.98
2022-07-26T20:48:17.615Z,0.85
2022-07-26T20:50:44.934Z,0.70
2022-07-26T20:53:12.299Z,0.93
2022-07-26T20:55:39.646Z,0.75
2022-07-26T20:58:06.966Z,0.70
2022-07-26T21:00:34.492Z,1.00
2022-07-26T21:03:01.867Z,0.75
2022-07-26T21:05:32.523Z,0.80
2022-07-26T21:08:00.207Z,0.90
2022-07-26T21:10:29.328Z,0.98
2022-07-26T21:13:00.142Z,1.02
2022-07-26T21:15:28.169Z,0.90
2022-07-26T21:17:55.376Z,1.23
2022-07-26T21:20:22.803Z,0.90
2022-07-26T21:22:50.045Z,1.52
2022-07-26T21:25:17.286Z,1.13
2022-07-26T21:27:44.528Z,2.17
2022-07-26T21:30:12.101Z,0.80
2022-07-26T21:32:39.348Z,0.90
2022-07-26T21:35:06.828Z,1.00
2022-07-26T21:37:34.075Z,2.38
2022-07-26T21:40:01.332Z,0.70
2022-07-26T21:42:28.635Z,0.95
2022-07-26T21:44:55.842Z,1.13
2022-07-26T21:47:23.083Z,0.80
2022-07-26T21:49:50.312Z,1.25
2022-07-26T21:52:17.539Z,0.80
2022-07-26T21:54:44.809Z,1.33
2022-07-26T21:57:12.033Z,2.00
2022-07-26T21:59:39.333Z,0.95
2022-07-26T22:02:06.650Z,1.73
2022-07-26T22:04:33.952Z,0.85
2022-07-26T22:07:01.245Z,0.82
2022-07-26T22:09:28.593Z,0.80
2022-07-26T22:11:55.921Z,1.45
2022-07-26T22:14:23.161Z,1.73
2022-07-26T22:16:50.585Z,0.85
2022-07-26T22:19:18.005Z,1.83
2022-07-26T22:21:45.317Z,0.80
2022-07-26T22:24:12.527Z,1.70
2022-07-26T22:26:42.084Z,1.13
2022-07-26T22:29:09.681Z,0.82
2022-07-26T22:31:37.188Z,1.08
2022-07-26T22:34:04.425Z,1.02
2022-07-26T22:36:31.810Z,1.05
2022-07-26T22:38:59.043Z,0.80
2022-07-26T22:41:26.333Z,1.30
2022-07-26T22:43:59.281Z,1.25
2022-07-26T22:46:28.196Z,1.17
2022-07-26T22:48:56.759Z,1.20
2022-07-26T22:51:24.043Z,1.00
2022-07-26T22:53:51.192Z,1.00
2022-07-26T22:56:19.857Z,1.05
2022-07-26T22:58:47.404Z,0.88
2022-07-26T23:01:17.887Z,0.82
2022-07-26T23:03:48.691Z,1.30
2022-07-26T23:06:31.423Z,1.20
2022-07-26T23:08:59.513Z,1.25
2022-07-26T23:11:26.794Z,1.33
2022-07-26T23:13:59.058Z,1.08
2022-07-26T23:16:26.683Z,1.20
2022-07-26T23:18:53.911Z,1.20
2022-07-26T23:21:21.229Z,1.33
2022-07-26T23:23:48.427Z,1.25
2022-07-26T23:26:15.673Z,1.25
2022-07-26T23:28:42.839Z,1.13
2022-07-26T23:31:11.641Z,1.67
2022-07-26T23:33:51.776Z,1.42
2022-07-26T23:36:22.388Z,1.40
2022-07-26T23:38:49.662Z,1.30
2022-07-26T23:41:16.951Z,1.00
2022-07-26T23:43:44.146Z,1.27
2022-07-26T23:46:11.417Z,1.70
2022-07-26T23:48:38.844Z,1.40
2022-07-26T23:51:06.152Z,1.08
2022-07-26T23:53:33.596Z,1.80
2022-07-26T23:56:00.810Z,1.33
2022-07-26T23:58:28.032Z,2.22
